createdAt,value
2023-05-21T00:00:21.294Z,13.83
2023-05-21T00:05:24.204Z,10.90
2023-05-21T00:10:26.888Z,45.30
2023-05-21T00:15:29.112Z,25.60
2023-05-21T00:20:32.519Z,17.77
2023-05-21T00:25:35.134Z,12.97
2023-05-21T00:30:37.593Z,13.17
2023-05-21T00:35:40.272Z,11.17
2023-05-21T00:40:42.764Z,33.90
2023-05-21T00:45:46.891Z,12.70
2023-05-21T00:50:49.738Z,11.40
2023-05-21T00:55:51.998Z,13.33
2023-05-21T01:00:58.248Z,18.30
2023-05-21T01:06:00.482Z,12.83
2023-05-21T01:11:06.279Z,10.93
2023-05-21T01:16:11.164Z,14.20
2023-05-21T01:21:17.531Z,13.07
2023-05-21T01:26:19.752Z,15.00
2023-05-21T01:31:50.446Z,12.77
2023-05-21T01:37:14.884Z,12.40
2023-05-21T01:42:23.069Z,13.00
2023-05-21T01:47:29.984Z,12.60
2023-05-21T01:52:32.150Z,11.00
2023-05-21T01:57:34.274Z,13.50
2023-05-21T02:02:36.799Z,22.37
2023-05-21T02:07:40.517Z,12.97
2023-05-21T02:12:43.493Z,14.67
2023-05-21T02:17:52.903Z,12.70
2023-05-21T02:22:55.181Z,14.33
2023-05-21T02:27:57.336Z,13.07
2023-05-21T02:32:59.493Z,14.17
2023-05-21T02:38:03.235Z,12.90
2023-05-21T02:43:06.350Z,12.13
2023-05-21T02:48:09.443Z,12.77
2023-05-21T02:53:16.663Z,12.03
2023-05-21T02:58:18.977Z,12.73
2023-05-21T03:03:21.297Z,13.77
2023-05-21T03:08:24.930Z,14.53
2023-05-21T03:13:27.558Z,11.60
2023-05-21T03:18:29.777Z,12.97
2023-05-21T03:23:32.197Z,13.27
2023-05-21T03:28:35.745Z,13.67
2023-05-21T03:33:38.054Z,14.90
2023-05-21T03:38:53.280Z,16.80
2023-05-21T03:43:56.109Z,15.20
2023-05-21T03:49:02.783Z,13.47
2023-05-21T03:54:07.427Z,14.03
2023-05-21T03:59:12.189Z,14.27
2023-05-21T04:04:15.016Z,14.03
2023-05-21T04:09:17.437Z,14.23
2023-05-21T04:14:19.643Z,13.67
2023-05-21T04:19:22.082Z,12.93
2023-05-21T04:24:26.030Z,12.83
2023-05-21T04:29:54.937Z,15.90
2023-05-21T04:35:01.254Z,14.53
2023-05-21T04:40:04.121Z,16.00
2023-05-21T04:45:07.419Z,13.27
2023-05-21T04:50:12.857Z,13.10
2023-05-21T04:55:15.184Z,11.13
2023-05-21T05:00:17.757Z,14.97
2023-05-21T05:05:21.198Z,11.90
2023-05-21T05:10:23.487Z,16.87
2023-05-21T05:15:27.590Z,12.77
2023-05-21T05:20:29.844Z,14.70
2023-05-21T05:25:31.977Z,13.77
2023-05-21T05:30:35.763Z,16.37
2023-05-21T05:35:49.630Z,11.47
2023-05-21T05:40:52.339Z,11.70
2023-05-21T05:45:54.588Z,12.33
2023-05-21T05:50:57.328Z,14.57
2023-05-21T05:56:01.392Z,13.27
2023-05-21T06:01:06.266Z,12.80
2023-05-21T06:06:08.771Z,13.23
2023-05-21T06:11:11.689Z,10.77
2023-05-21T06:16:14.264Z,11.80
2023-05-21T06:21:17.022Z,12.77
2023-05-21T06:26:20.588Z,12.20
2023-05-21T06:31:24.827Z,10.90
2023-05-21T06:36:30.221Z,11.00
2023-05-21T06:41:33.189Z,10.07
2023-05-21T06:46:39.221Z,11.20
2023-05-21T06:51:43.894Z,10.97
2023-05-21T06:56:48.028Z,11.67
2023-05-21T07:01:51.069Z,10.93
2023-05-21T07:06:53.750Z,11.63
2023-05-21T07:11:56.111Z,9.23
2023-05-21T07:16:58.640Z,9.50
2023-05-21T07:22:00.938Z,11.27
2023-05-21T07:27:11.285Z,15.73
2023-05-21T07:32:20.658Z,10.60
2023-05-21T07:37:23.760Z,7.70
2023-05-21T07:42:27.064Z,9.10
2023-05-21T07:47:31.624Z,9.00
2023-05-21T07:52:35.010Z,11.07
2023-05-21T07:57:37.555Z,9.57
2023-05-21T08:02:44.412Z,9.83
2023-05-21T08:07:49.149Z,12.53
2023-05-21T08:12:51.418Z,29.13
2023-05-21T08:17:54.781Z,9.57
2023-05-21T08:22:57.504Z,9.07
2023-05-21T08:27:59.921Z,9.60
2023-05-21T08:33:03.377Z,14.45
2023-05-21T08:38:08.657Z,8.87
2023-05-21T08:43:21.204Z,10.23
2023-05-21T08:48:24.790Z,9.07
2023-05-21T08:53:30.215Z,15.57
2023-05-21T08:58:34.476Z,10.47
2023-05-21T09:03:40.986Z,8.83
2023-05-21T09:08:49.863Z,11.33
2023-05-21T09:14:00.854Z,8.93
2023-05-21T09:19:20.312Z,10.23
2023-05-21T09:24:25.668Z,8.73
2023-05-21T09:29:29.966Z,8.20
2023-05-21T09:34:32.181Z,9.80
2023-05-21T09:39:36.381Z,60.53
2023-05-21T09:44:43.444Z,10.57
2023-05-21T09:49:46.430Z,112.57
2023-05-21T09:54:48.547Z,120.33
2023-05-21T09:59:51.352Z,31.43
2023-05-21T10:04:57.298Z,132.00
2023-05-21T10:10:01.371Z,17.83
2023-05-21T10:15:13.945Z,16.73
2023-05-21T10:20:17.756Z,7.73
2023-05-21T10:25:22.782Z,8.40
2023-05-21T10:30:25.875Z,8.33
2023-05-21T10:35:29.081Z,43.83
2023-05-21T10:40:31.660Z,14.63
2023-05-21T10:46:13.814Z,12.00
2023-05-21T10:51:25.867Z,9.90
2023-05-21T10:56:45.164Z,9.10
2023-05-21T11:01:55.477Z,7.90
2023-05-21T11:06:59.469Z,8.50
2023-05-21T11:12:03.247Z,8.43
2023-05-21T11:17:17.050Z,7.67
2023-05-21T11:22:28.148Z,8.13
2023-05-21T11:27:42.934Z,8.40
2023-05-21T11:33:23.940Z,10.57
2023-05-21T11:38:31.837Z,7.47
2023-05-21T11:43:34.134Z,9.47
2023-05-21T11:48:39.090Z,8.70
2023-05-21T11:53:44.317Z,7.57
2023-05-21T11:58:47.162Z,7.70
2023-05-21T12:03:49.393Z,7.43
2023-05-21T12:08:58.558Z,7.60
2023-05-21T12:14:01.386Z,34.67
2023-05-21T12:19:04.293Z,46.03
2023-05-21T12:24:06.925Z,133.63
2023-05-21T12:29:09.330Z,171.98
2023-05-21T12:34:11.535Z,149.20
2023-05-21T12:39:15.347Z,170.20
2023-05-21T12:44:17.685Z,153.07
2023-05-21T12:49:37.760Z,10.33
2023-05-21T12:54:44.121Z,130.87
2023-05-21T12:59:59.172Z,183.53
2023-05-21T13:05:06.826Z,48.00
2023-05-21T13:10:09.903Z,232.40
2023-05-21T13:15:12.633Z,174.73
2023-05-21T13:20:17.089Z,159.90
2023-05-21T13:25:25.249Z,157.25
2023-05-21T13:30:27.547Z,160.23
2023-05-21T13:35:34.719Z,5.68
2023-05-21T13:40:39.055Z,66.53
2023-05-21T13:45:41.473Z,165.83
2023-05-21T13:50:43.882Z,168.50
2023-05-21T13:55:46.382Z,181.73
2023-05-21T14:00:48.589Z,99.27
2023-05-21T14:05:53.804Z,154.95
2023-05-21T14:10:56.448Z,187.10
2023-05-21T14:15:58.771Z,710.95
2023-05-21T14:21:01.141Z,537.03
2023-05-21T14:26:03.467Z,436.27
2023-05-21T14:31:06.990Z,323.70
2023-05-21T14:36:09.237Z,243.82
2023-05-21T14:41:11.586Z,6.53
2023-05-21T14:46:14.335Z,5.80
2023-05-21T14:51:16.774Z,13.70
2023-05-21T14:56:21.832Z,167.15
2023-05-21T15:01:24.391Z,172.02
2023-05-21T15:06:26.635Z,141.73
2023-05-21T15:11:28.844Z,104.93
2023-05-21T15:16:31.495Z,432.10
2023-05-21T15:21:33.735Z,86.32
2023-05-21T15:26:35.939Z,74.03
2023-05-21T15:31:39.692Z,96.13
2023-05-21T15:36:41.868Z,22.83
2023-05-21T15:41:44.628Z,23.60
2023-05-21T15:46:50.022Z,4.67
2023-05-21T15:51:52.242Z,12.57
2023-05-21T15:56:54.471Z,6.72
2023-05-21T16:01:56.886Z,53.13
2023-05-21T16:06:59.134Z,58.03
2023-05-21T16:12:01.662Z,53.57
2023-05-21T16:17:03.901Z,138.77
2023-05-21T16:22:07.123Z,15.37
2023-05-21T16:27:10.360Z,4.65
2023-05-21T16:32:14.303Z,13.87
2023-05-21T16:37:16.887Z,140.00
2023-05-21T16:42:19.372Z,516.30
2023-05-21T16:47:21.819Z,167.03
2023-05-21T16:52:24.505Z,135.53
2023-05-21T16:57:26.603Z,34.33
2023-05-21T17:02:28.842Z,122.33
2023-05-21T17:07:31.771Z,103.47
2023-05-21T17:12:33.989Z,102.03
2023-05-21T17:17:36.317Z,81.97
2023-05-21T17:22:38.578Z,72.17
2023-05-21T17:27:40.829Z,64.47
2023-05-21T17:32:43.302Z,62.37
2023-05-21T17:37:46.088Z,54.20
2023-05-21T17:42:48.758Z,48.33
2023-05-21T17:47:51.031Z,51.43
2023-05-21T17:52:53.334Z,39.57
2023-05-21T17:57:55.679Z,43.03
2023-05-21T18:02:58.854Z,34.30
2023-05-21T18:08:04.910Z,39.80
2023-05-21T18:13:07.270Z,31.73
2023-05-21T18:18:09.566Z,30.20
2023-05-21T18:23:12.409Z,33.50
2023-05-21T18:28:14.675Z,26.57
2023-05-21T18:33:17.270Z,22.60
2023-05-21T18:38:19.480Z,20.47
2023-05-21T18:43:21.672Z,17.77
2023-05-21T18:48:23.848Z,18.03
2023-05-21T18:53:26.026Z,21.43
2023-05-21T18:58:29.457Z,13.37
2023-05-21T19:03:32.309Z,15.23
2023-05-21T19:08:34.665Z,12.80
2023-05-21T19:13:36.801Z,9.27
2023-05-21T19:18:43.360Z,8.97
2023-05-21T19:23:53.400Z,7.43
2023-05-21T19:28:56.715Z,8.70
2023-05-21T19:33:58.956Z,7.33
2023-05-21T19:39:01.219Z,8.37
2023-05-21T19:44:03.508Z,9.43
2023-05-21T19:49:06.045Z,6.80
2023-05-21T19:54:08.192Z,8.47
2023-05-21T19:59:11.707Z,9.03
2023-05-21T20:04:14.462Z,9.43
2023-05-21T20:09:18.264Z,7.90
2023-05-21T20:14:20.531Z,7.90
2023-05-21T20:19:22.882Z,8.27
2023-05-21T20:24:25.130Z,8.37
2023-05-21T20:29:27.337Z,7.20
2023-05-21T20:34:29.912Z,8.07
2023-05-21T20:39:32.624Z,7.47
2023-05-21T20:44:34.830Z,8.07
2023-05-21T20:49:38.569Z,10.13
2023-05-21T20:54:40.755Z,10.87
2023-05-21T20:59:43.555Z,7.90
2023-05-21T21:04:50.020Z,9.23
2023-05-21T21:09:52.408Z,9.13
2023-05-21T21:14:55.559Z,8.40
2023-05-21T21:19:57.712Z,10.13
2023-05-21T21:25:00.226Z,7.87
2023-05-21T21:30:03.151Z,9.17
2023-05-21T21:35:06.198Z,10.10
2023-05-21T21:40:09.435Z,8.47
2023-05-21T21:45:11.976Z,9.67
2023-05-21T21:50:14.405Z,6.87
2023-05-21T21:55:16.746Z,8.37
2023-05-21T22:00:19.419Z,9.27
2023-05-21T22:05:21.738Z,8.30
2023-05-21T22:10:23.900Z,8.97
2023-05-21T22:15:28.852Z,44.37
2023-05-21T22:20:31.236Z,9.10
2023-05-21T22:25:33.384Z,8.07
2023-05-21T22:30:37.927Z,7.80
2023-05-21T22:35:40.251Z,9.20
2023-05-21T22:40:42.392Z,11.90
2023-05-21T22:45:44.911Z,8.23
2023-05-21T22:50:47.393Z,11.60
2023-05-21T22:55:52.499Z,9.90
2023-05-21T23:00:54.657Z,13.13
2023-05-21T23:05:56.816Z,8.50
2023-05-21T23:10:59.028Z,8.37
2023-05-21T23:16:01.424Z,9.50
2023-05-21T23:21:03.805Z,8.80
2023-05-21T23:26:06.065Z,8.37
2023-05-21T23:31:08.296Z,12.40
2023-05-21T23:36:10.537Z,9.07
2023-05-21T23:41:13.978Z,8.57
2023-05-21T23:46:16.472Z,8.57
2023-05-21T23:51:19.469Z,7.90
2023-05-21T23:56:21.613Z,9.23
